Time;durP1;ratioP1;P1;durP2;ratioP2;P2;SDS_P1;SDS_P2;PMS_P1;PMS_P2;Temp;Humidity;BMP_temperature;BMP_pressure;BME280_temperature;BME280_humidity;BME280_pressure;Samples;Min_cycle;Max_cycle;Signal;HPM_P1;HPM_P2
2023/09/27 00:01:37;;;;;;;12.97;9.57;;;14.70;30.30;;;;;;4984633;28;20476;-65
2023/09/27 00:04:05;;;;;;;14.10;9.70;;;14.70;30.20;;;;;;4989228;28;20810;-65
2023/09/27 00:06:32;;;;;;;10.63;9.20;;;14.60;29.90;;;;;;4987449;28;20465;-65
2023/09/27 00:08:58;;;;;;;11.60;9.10;;;14.60;29.70;;;;;;4985528;28;20463;-63
2023/09/27 00:11:25;;;;;;;9.30;8.20;;;14.60;29.90;;;;;;4986113;28;20464;-63
2023/09/27 00:13:52;;;;;;;10.90;9.27;;;14.50;30.20;;;;;;4989171;28;20511;-64
2023/09/27 00:16:18;;;;;;;13.57;9.03;;;14.50;30.30;;;;;;4988976;28;20468;-64
2023/09/27 00:18:47;;;;;;;16.13;9.10;;;14.50;30.30;;;;;;4988724;28;20464;-63
2023/09/27 00:21:13;;;;;;;10.20;8.70;;;14.40;30.30;;;;;;4988190;28;20476;-65
2023/09/27 00:23:40;;;;;;;8.60;7.37;;;14.50;31.10;;;;;;4984885;28;20552;-65
2023/09/27 00:26:07;;;;;;;9.90;7.23;;;14.50;31.60;;;;;;4987772;28;20457;-63
2023/09/27 00:28:33;;;;;;;9.93;7.50;;;14.50;31.20;;;;;;4988923;28;20483;-65
2023/09/27 00:31:00;;;;;;;12.10;8.77;;;14.40;31.40;;;;;;4990926;28;20488;-64
2023/09/27 00:33:27;;;;;;;8.50;7.33;;;14.40;31.40;;;;;;4991676;28;20480;-65
2023/09/27 00:35:55;;;;;;;11.57;7.30;;;14.40;31.40;;;;;;4992421;28;20980;-65
2023/09/27 00:38:21;;;;;;;10.27;7.47;;;14.30;31.30;;;;;;4990977;28;20531;-64
2023/09/27 00:40:49;;;;;;;13.90;7.87;;;14.30;31.20;;;;;;4989931;28;20472;-64
2023/09/27 00:43:26;;;;;;;10.63;8.27;;;14.20;31.00;;;;;;4985497;28;20519;-64
2023/09/27 00:45:54;;;;;;;11.87;8.53;;;14.20;31.20;;;;;;4976027;28;20464;-63
2023/09/27 00:48:21;;;;;;;9.83;7.67;;;14.20;31.00;;;;;;4981494;28;20954;-64
2023/09/27 00:50:48;;;;;;;10.03;8.40;;;14.20;31.10;;;;;;4990237;28;20472;-63
2023/09/27 00:53:16;;;;;;;9.13;8.17;;;14.10;31.00;;;;;;4992351;28;20480;-63
2023/09/27 00:55:42;;;;;;;11.17;7.60;;;14.10;31.00;;;;;;4992426;28;20467;-65
2023/09/27 00:58:10;;;;;;;10.37;8.40;;;14.10;30.90;;;;;;4991340;28;20464;-64
2023/09/27 01:00:39;;;;;;;11.63;7.73;;;14.00;30.70;;;;;;4992656;28;20985;-65
2023/09/27 01:03:05;;;;;;;12.17;9.60;;;14.00;30.90;;;;;;4985829;28;20521;-63
2023/09/27 01:05:32;;;;;;;12.93;9.07;;;14.10;31.10;;;;;;4991894;28;20484;-63
2023/09/27 01:07:59;;;;;;;12.27;9.23;;;14.10;31.50;;;;;;4989778;28;20473;-63
2023/09/27 01:10:27;;;;;;;10.30;8.27;;;14.00;31.30;;;;;;4990541;28;20460;-64
2023/09/27 01:12:53;;;;;;;10.93;8.80;;;14.00;31.20;;;;;;4987273;28;20623;-63
2023/09/27 01:15:20;;;;;;;12.10;8.70;;;14.00;31.40;;;;;;4989898;28;20502;-63
2023/09/27 01:17:54;;;;;;;9.60;8.33;;;13.90;31.40;;;;;;4989434;28;20460;-63
2023/09/27 01:20:21;;;;;;;13.10;9.07;;;13.90;31.50;;;;;;4992799;28;20495;-63
2023/09/27 01:22:55;;;;;;;10.03;8.53;;;13.80;31.50;;;;;;4985192;28;20460;-63
2023/09/27 01:25:23;;;;;;;13.80;8.93;;;13.80;31.30;;;;;;4992745;28;20530;-63
2023/09/27 01:27:49;;;;;;;10.60;8.67;;;13.80;31.20;;;;;;4988025;28;20472;-65
2023/09/27 01:30:16;;;;;;;9.63;8.63;;;13.80;31.60;;;;;;4991213;28;20468;-63
2023/09/27 01:32:43;;;;;;;11.97;10.30;;;13.80;31.60;;;;;;4989238;28;20488;-65
2023/09/27 01:35:10;;;;;;;13.50;10.67;;;13.80;32.00;;;;;;4989053;28;20835;-63
2023/09/27 01:37:37;;;;;;;13.23;11.40;;;13.80;31.90;;;;;;4992272;28;20460;-63
2023/09/27 01:40:08;;;;;;;13.10;10.53;;;13.80;32.10;;;;;;4991663;28;20468;-64
2023/09/27 01:42:35;;;;;;;11.40;10.20;;;13.80;32.40;;;;;;4988645;28;20468;-65
2023/09/27 01:45:03;;;;;;;12.33;10.60;;;13.80;32.70;;;;;;4993180;28;20495;-64
2023/09/27 01:47:30;;;;;;;12.27;9.50;;;13.80;32.60;;;;;;4989519;28;20461;-63
2023/09/27 01:49:56;;;;;;;12.30;10.50;;;13.70;32.50;;;;;;4991874;28;20461;-65
2023/09/27 01:52:23;;;;;;;11.80;9.87;;;13.70;32.50;;;;;;4993108;28;20534;-65
2023/09/27 01:54:50;;;;;;;12.00;9.70;;;13.70;32.50;;;;;;4999531;28;20496;-64
2023/09/27 01:57:18;;;;;;;10.97;9.80;;;13.70;32.40;;;;;;4994213;28;20472;-64
2023/09/27 01:59:44;;;;;;;9.47;8.47;;;13.60;32.20;;;;;;4988783;28;20475;-64
2023/09/27 02:02:11;;;;;;;10.27;8.03;;;13.60;31.80;;;;;;4991573;28;20468;-64
2023/09/27 02:04:38;;;;;;;9.87;7.90;;;13.60;31.60;;;;;;4989363;28;20477;-64
2023/09/27 02:07:04;;;;;;;8.97;8.00;;;13.50;31.40;;;;;;4992027;28;20471;-64
2023/09/27 02:09:32;;;;;;;8.77;6.67;;;13.50;31.10;;;;;;4994856;28;20465;-64
2023/09/27 02:11:58;;;;;;;9.90;7.27;;;13.40;30.60;;;;;;4989817;28;20469;-64
2023/09/27 02:14:26;;;;;;;9.90;7.87;;;13.40;29.60;;;;;;4987418;28;20500;-64
2023/09/27 02:16:53;;;;;;;8.67;7.47;;;13.40;28.90;;;;;;4990566;28;20473;-64
2023/09/27 02:19:20;;;;;;;11.90;8.10;;;13.40;29.30;;;;;;4992401;28;20470;-64
2023/09/27 02:21:47;;;;;;;10.73;8.20;;;13.40;29.70;;;;;;4987786;28;20464;-64
2023/09/27 02:24:15;;;;;;;12.93;8.17;;;13.40;30.10;;;;;;4984603;28;20839;-64
2023/09/27 02:26:41;;;;;;;12.87;8.57;;;13.40;30.20;;;;;;4991252;28;20980;-64
2023/09/27 02:29:09;;;;;;;10.30;8.47;;;13.30;30.50;;;;;;4992526;28;20466;-64
2023/09/27 02:31:38;;;;;;;11.77;8.87;;;13.30;30.70;;;;;;4987850;28;20475;-64
2023/09/27 02:34:05;;;;;;;9.47;8.30;;;13.20;30.80;;;;;;4990236;28;20851;-65
2023/09/27 02:36:32;;;;;;;11.93;8.70;;;13.20;30.70;;;;;;4992920;28;20475;-64
2023/09/27 02:38:58;;;;;;;12.37;10.27;;;13.20;30.90;;;;;;4988152;28;20461;-64
2023/09/27 02:41:25;;;;;;;11.53;9.83;;;13.10;31.20;;;;;;4993687;28;20827;-64
2023/09/27 02:43:52;;;;;;;10.93;8.67;;;13.10;31.10;;;;;;4989985;28;20476;-65
2023/09/27 02:46:19;;;;;;;12.00;9.07;;;13.10;31.10;;;;;;4990169;28;20843;-64
2023/09/27 02:48:47;;;;;;;11.80;8.47;;;13.00;31.00;;;;;;4987197;28;20475;-64
2023/09/27 02:51:15;;;;;;;11.03;8.47;;;13.00;31.10;;;;;;4992308;28;21118;-64
2023/09/27 02:53:42;;;;;;;10.77;8.40;;;13.00;31.00;;;;;;4987203;28;20528;-64
2023/09/27 02:56:10;;;;;;;14.60;11.97;;;12.90;30.80;;;;;;4994421;28;20531;-64
2023/09/27 02:58:37;;;;;;;11.43;10.17;;;12.90;31.40;;;;;;4991475;28;20502;-65
2023/09/27 03:01:04;;;;;;;12.00;10.10;;;12.90;31.40;;;;;;4991420;28;20480;-64
2023/09/27 03:03:31;;;;;;;13.83;10.27;;;12.90;31.50;;;;;;4994039;28;20479;-64
2023/09/27 03:05:59;;;;;;;15.27;10.10;;;12.90;32.10;;;;;;4995266;28;20461;-63
2023/09/27 03:08:26;;;;;;;13.73;10.00;;;12.90;31.60;;;;;;4991770;28;20467;-64
2023/09/27 03:10:53;;;;;;;15.43;9.73;;;12.90;31.50;;;;;;4990018;28;20827;-64
2023/09/27 03:13:20;;;;;;;12.50;9.00;;;12.90;31.40;;;;;;4988944;28;20944;-64
2023/09/27 03:15:56;;;;;;;16.60;9.60;;;12.90;31.30;;;;;;4989588;28;20549;-65
2023/09/27 03:18:23;;;;;;;15.27;9.23;;;12.80;31.30;;;;;;4990824;28;20460;-64
2023/09/27 03:20:51;;;;;;;15.07;9.90;;;12.80;31.30;;;;;;4985707;28;20876;-65
2023/09/27 03:23:19;;;;;;;11.57;9.30;;;12.80;31.40;;;;;;4991201;28;20489;-64
2023/09/27 03:25:48;;;;;;;14.87;10.00;;;12.70;31.20;;;;;;4991334;28;20461;-64
2023/09/27 03:28:15;;;;;;;14.13;10.67;;;12.70;31.10;;;;;;4989617;28;20465;-63
2023/09/27 03:30:42;;;;;;;13.77;9.73;;;12.70;31.10;;;;;;4986055;28;20484;-63
2023/09/27 03:33:09;;;;;;;12.63;9.97;;;12.70;31.10;;;;;;4990160;28;20481;-63
2023/09/27 03:35:36;;;;;;;12.40;10.10;;;12.70;31.30;;;;;;4988376;28;20464;-63
2023/09/27 03:38:03;;;;;;;12.20;10.00;;;12.70;31.60;;;;;;4992809;28;20461;-63
2023/09/27 03:40:31;;;;;;;10.77;9.07;;;12.70;31.90;;;;;;4989633;28;20468;-63
2023/09/27 03:42:58;;;;;;;20.20;12.30;;;12.70;32.00;;;;;;4984776;28;20465;-63
2023/09/27 03:45:25;;;;;;;19.70;13.43;;;12.70;32.20;;;;;;4992265;28;20488;-63
2023/09/27 03:47:52;;;;;;;18.60;14.50;;;12.70;33.10;;;;;;4984006;28;20897;-63
2023/09/27 03:50:19;;;;;;;16.30;13.13;;;12.60;33.80;;;;;;4989372;28;20205;-64
2023/09/27 03:52:45;;;;;;;14.13;10.17;;;12.70;33.70;;;;;;4989152;28;20485;-64
2023/09/27 03:55:13;;;;;;;17.07;10.70;;;12.70;33.30;;;;;;4991395;28;20500;-64
2023/09/27 03:57:42;;;;;;;11.07;9.83;;;12.70;33.10;;;;;;4990833;28;20475;-64
2023/09/27 04:00:12;;;;;;;13.23;10.70;;;12.60;32.80;;;;;;4986787;28;20464;-63
2023/09/27 04:02:39;;;;;;;12.87;10.77;;;12.60;32.60;;;;;;4981411;28;20484;-63
2023/09/27 04:05:06;;;;;;;14.47;11.40;;;12.70;32.50;;;;;;4982877;28;20496;-65
2023/09/27 04:07:33;;;;;;;13.43;11.00;;;12.60;32.30;;;;;;4987805;28;20468;-65
2023/09/27 04:10:00;;;;;;;13.90;11.00;;;12.60;32.50;;;;;;4986360;28;20468;-64
2023/09/27 04:12:27;;;;;;;15.77;11.43;;;12.60;32.60;;;;;;4987898;28;20502;-65
2023/09/27 04:14:55;;;;;;;13.30;10.47;;;12.60;32.50;;;;;;4984238;28;20507;-65
2023/09/27 04:17:22;;;;;;;14.83;11.60;;;12.60;32.60;;;;;;4989685;28;20469;-65
2023/09/27 04:19:51;;;;;;;16.00;9.63;;;12.60;32.60;;;;;;4985624;28;20471;-65
2023/09/27 04:22:17;;;;;;;13.03;9.37;;;12.50;32.30;;;;;;4986596;28;20479;-65
2023/09/27 04:24:44;;;;;;;9.97;8.30;;;12.50;32.10;;;;;;4987652;28;20481;-65
2023/09/27 04:27:11;;;;;;;12.07;9.60;;;12.50;32.00;;;;;;4986683;28;20883;-65
2023/09/27 04:29:38;;;;;;;14.30;10.33;;;12.50;32.00;;;;;;4988538;28;20464;-65
2023/09/27 04:32:06;;;;;;;13.43;10.30;;;12.40;31.90;;;;;;4985184;28;20993;-65
2023/09/27 04:34:32;;;;;;;11.77;9.03;;;12.40;31.90;;;;;;4984636;28;20936;-65
2023/09/27 04:36:59;;;;;;;12.50;10.80;;;12.40;31.90;;;;;;4986328;28;20472;-66
2023/09/27 04:39:30;;;;;;;13.30;10.50;;;12.40;31.80;;;;;;4987373;28;20559;-66
2023/09/27 04:41:57;;;;;;;17.53;12.30;;;12.40;31.80;;;;;;4987454;28;20453;-65
2023/09/27 04:44:24;;;;;;;20.83;12.90;;;12.50;31.90;;;;;;4989381;28;20507;-66
2023/09/27 04:46:51;;;;;;;21.30;14.33;;;12.50;32.30;;;;;;4986567;28;20468;-68
2023/09/27 04:49:19;;;;;;;18.03;12.17;;;12.50;32.50;;;;;;4989441;28;20460;-66
2023/09/27 04:51:45;;;;;;;19.40;13.20;;;12.50;32.60;;;;;;4988147;28;20473;-66
2023/09/27 04:54:12;;;;;;;14.50;11.80;;;12.50;32.70;;;;;;4987050;28;20495;-66
2023/09/27 04:56:39;;;;;;;14.33;10.93;;;12.50;32.70;;;;;;4986085;28;20938;-65
2023/09/27 04:59:06;;;;;;;15.57;11.80;;;12.50;32.70;;;;;;4986916;28;20464;-66
2023/09/27 05:01:32;;;;;;;17.70;13.60;;;12.50;32.60;;;;;;4985329;28;20842;-65
2023/09/27 05:03:59;;;;;;;19.17;12.47;;;12.50;32.60;;;;;;4988088;28;20485;-65
2023/09/27 05:06:28;;;;;;;16.73;13.80;;;12.50;32.70;;;;;;4986339;28;20476;-65
2023/09/27 05:08:55;;;;;;;20.07;13.77;;;12.50;32.70;;;;;;4986779;28;20511;-65
2023/09/27 05:11:22;;;;;;;14.10;11.80;;;12.50;33.00;;;;;;4985300;28;20548;-65
2023/09/27 05:13:48;;;;;;;13.97;11.43;;;12.50;32.80;;;;;;5002818;23;20565;-66
2023/09/27 05:16:15;;;;;;;15.07;12.00;;;12.50;32.90;;;;;;4989395;28;20467;-67
2023/09/27 05:18:42;;;;;;;16.00;11.63;;;12.50;32.90;;;;;;5006559;28;20475;-66
2023/09/27 05:21:09;;;;;;;13.80;10.03;;;12.50;32.90;;;;;;5006914;28;20460;-66
2023/09/27 05:23:37;;;;;;;11.83;9.60;;;12.50;32.90;;;;;;5008058;28;20858;-67
2023/09/27 05:26:04;;;;;;;12.03;9.43;;;12.40;32.70;;;;;;5006473;28;20464;-65
2023/09/27 05:28:32;;;;;;;11.03;8.30;;;12.50;32.70;;;;;;5008205;28;20459;-66
2023/09/27 05:31:00;;;;;;;14.20;9.50;;;12.50;32.30;;;;;;5006555;28;20516;-65
2023/09/27 05:33:27;;;;;;;12.57;8.97;;;12.60;32.10;;;;;;5010085;28;20484;-67
2023/09/27 05:35:54;;;;;;;15.90;11.40;;;12.70;32.10;;;;;;5007456;28;20558;-66
2023/09/27 05:38:21;;;;;;;14.38;10.77;;;12.70;32.00;;;;;;5006426;28;20456;-66
2023/09/27 05:40:49;;;;;;;12.77;10.53;;;12.80;32.60;;;;;;5007049;28;20295;-66
2023/09/27 05:43:16;;;;;;;12.57;10.30;;;13.00;32.70;;;;;;5009163;28;20468;-66
2023/09/27 05:45:43;;;;;;;14.93;10.47;;;13.10;32.40;;;;;;5008777;28;20474;-66
2023/09/27 05:48:09;;;;;;;13.83;11.50;;;13.40;31.80;;;;;;5001896;28;20464;-66
2023/09/27 05:50:37;;;;;;;16.57;10.10;;;13.70;30.80;;;;;;5008897;28;21346;-66
2023/09/27 05:53:05;;;;;;;13.57;10.33;;;14.20;29.30;;;;;;5007726;28;20504;-66
2023/09/27 05:55:31;;;;;;;12.43;9.90;;;14.70;27.60;;;;;;5006490;28;20549;-66
2023/09/27 05:57:59;;;;;;;12.43;9.80;;;15.30;25.80;;;;;;5008124;28;20468;-65
2023/09/27 06:00:31;;;;;;;16.43;10.60;;;15.80;24.00;;;;;;5007561;28;20475;-65
2023/09/27 06:02:59;;;;;;;13.63;11.30;;;15.90;22.70;;;;;;5007072;28;20478;-65
2023/09/27 06:05:26;;;;;;;12.50;9.83;;;16.00;22.40;;;;;;5008695;28;21071;-65
2023/09/27 06:07:53;;;;;;;12.17;9.37;;;16.20;21.80;;;;;;5008819;28;20503;-65
2023/09/27 06:10:19;;;;;;;15.57;9.30;;;16.50;20.70;;;;;;5006318;28;20491;-66
2023/09/27 06:12:46;;;;;;;13.90;9.67;;;16.70;20.10;;;;;;5008535;28;20467;-65
2023/09/27 06:15:15;;;;;;;14.60;9.53;;;16.80;19.80;;;;;;5010060;28;20816;-64
2023/09/27 06:17:42;;;;;;;19.10;10.27;;;16.90;19.70;;;;;;5009514;28;20467;-65
2023/09/27 06:20:12;;;;;;;32.73;10.27;;;17.00;19.40;;;;;;5007001;28;20458;-65
2023/09/27 06:22:40;;;;;;;29.33;11.50;;;16.90;19.30;;;;;;5010372;28;20934;-65
2023/09/27 06:25:07;;;;;;;17.10;10.40;;;16.90;19.20;;;;;;5009683;28;21238;-65
2023/09/27 06:27:34;;;;;;;12.23;10.93;;;16.90;19.20;;;;;;5010403;28;20460;-66
2023/09/27 06:30:03;;;;;;;16.63;11.33;;;16.80;19.40;;;;;;5010236;28;21037;-65
2023/09/27 06:32:31;;;;;;;12.67;10.30;;;16.80;19.50;;;;;;5009210;28;20503;-66
2023/09/27 06:34:58;;;;;;;14.73;10.80;;;16.90;19.70;;;;;;5005093;28;20480;-66
2023/09/27 06:37:25;;;;;;;16.80;10.57;;;17.10;19.60;;;;;;5007287;28;20468;-65
2023/09/27 06:39:51;;;;;;;13.80;11.40;;;17.40;19.40;;;;;;5007338;28;20956;-66
2023/09/27 06:42:19;;;;;;;12.83;11.53;;;17.70;18.90;;;;;;5005196;28;20467;-67
2023/09/27 06:44:45;;;;;;;15.07;10.90;;;18.00;17.90;;;;;;5005556;28;20488;-65
2023/09/27 06:47:12;;;;;;;22.07;10.73;;;18.40;16.60;;;;;;5005264;28;20512;-67
2023/09/27 06:49:40;;;;;;;19.03;10.50;;;18.70;16.00;;;;;;5008598;28;20492;-66
2023/09/27 06:52:07;;;;;;;12.67;11.30;;;18.90;14.90;;;;;;5005951;28;20983;-66
2023/09/27 06:54:34;;;;;;;10.97;9.60;;;19.50;14.00;;;;;;5007536;28;21025;-67
2023/09/27 06:57:00;;;;;;;12.03;10.77;;;20.20;13.00;;;;;;5007229;28;20460;-67
2023/09/27 06:59:27;;;;;;;13.20;11.80;;;21.10;11.10;;;;;;5006608;28;20461;-68
2023/09/27 07:01:54;;;;;;;12.30;10.57;;;22.20;9.00;;;;;;5007498;28;20479;-68
2023/09/27 07:04:20;;;;;;;12.57;11.30;;;23.30;6.60;;;;;;5006314;28;20502;-68
2023/09/27 07:06:48;;;;;;;11.20;10.10;;;24.40;4.00;;;;;;5005352;28;20464;-68
2023/09/27 07:09:16;;;;;;;12.30;11.10;;;25.80;1.20;;;;;;5008271;28;20464;-68
2023/09/27 07:11:44;;;;;;;11.83;10.70;;;27.00;1.00;;;;;;5006376;28;20463;-68
2023/09/27 07:14:12;;;;;;;12.67;10.63;;;28.20;1.00;;;;;;5004229;28;20839;-67
2023/09/27 07:16:38;;;;;;;11.63;10.37;;;29.30;1.00;;;;;;5007360;28;20539;-68
2023/09/27 07:19:05;;;;;;;10.57;9.57;;;30.40;1.00;;;;;;5009106;28;20464;-67
2023/09/27 07:21:32;;;;;;;13.20;9.80;;;31.30;1.00;;;;;;5009532;28;20514;-67
2023/09/27 07:24:00;;;;;;;10.47;9.37;;;32.20;1.00;;;;;;5009530;28;20495;-67
2023/09/27 07:26:29;;;;;;;9.97;8.97;;;33.20;1.00;;;;;;5012900;28;20464;-67
2023/09/27 07:28:56;;;;;;;9.47;8.57;;;34.20;1.00;;;;;;5010039;28;20460;-68
2023/09/27 07:31:23;;;;;;;10.30;9.40;;;35.10;1.00;;;;;;5004393;28;21045;-68
2023/09/27 07:33:52;;;;;;;10.33;8.90;;;35.80;1.00;;;;;;5005927;28;20484;-68
2023/09/27 07:36:20;;;;;;;8.80;8.00;;;36.50;1.00;;;;;;5008869;28;20460;-68
2023/09/27 07:38:48;;;;;;;8.57;7.77;;;37.10;1.00;;;;;;5006951;28;20456;-68
2023/09/27 07:41:17;;;;;;;8.90;8.10;;;37.80;1.00;;;;;;5008935;28;20832;-68
2023/09/27 07:43:44;;;;;;;8.13;7.33;;;38.50;1.00;;;;;;5008454;28;20836;-69
2023/09/27 07:46:12;;;;;;;8.23;7.43;;;39.10;1.00;;;;;;5006335;28;20464;-68
2023/09/27 07:48:41;;;;;;;7.80;7.00;;;39.80;1.00;;;;;;5005771;28;21190;-68
2023/09/27 07:51:11;;;;;;;8.17;7.37;;;40.50;1.00;;;;;;5005836;28;20467;-68
2023/09/27 07:53:38;;;;;;;8.57;7.50;;;41.30;1.00;;;;;;5006682;28;20480;-68
2023/09/27 07:56:06;;;;;;;7.87;7.10;;;41.90;1.00;;;;;;5005732;28;20971;-68
2023/09/27 07:58:34;;;;;;;7.27;6.67;;;42.50;1.00;;;;;;5008177;28;20452;-68
2023/09/27 08:01:01;;;;;;;8.90;7.13;;;42.80;1.00;;;;;;5007808;28;20471;-69
2023/09/27 08:03:28;;;;;;;6.97;6.27;;;43.00;1.00;;;;;;5006392;28;20486;-69
2023/09/27 08:05:55;;;;;;;7.80;7.10;;;43.50;1.00;;;;;;5005573;28;20851;-69
2023/09/27 08:08:22;;;;;;;7.50;6.77;;;43.90;1.00;;;;;;5008068;28;20459;-69
2023/09/27 08:10:49;;;;;;;7.17;6.47;;;44.40;1.00;;;;;;5007502;28;20455;-69
2023/09/27 08:13:18;;;;;;;7.37;6.57;;;44.90;1.00;;;;;;5005695;28;20459;-69
2023/09/27 08:15:48;;;;;;;6.90;5.97;;;45.20;1.00;;;;;;5003200;28;20484;-69
2023/09/27 08:18:16;;;;;;;6.50;5.27;;;45.60;1.00;;;;;;5000489;28;20517;-69
2023/09/27 08:20:45;;;;;;;6.90;6.30;;;45.80;1.00;;;;;;5007485;28;20853;-69
2023/09/27 08:23:12;;;;;;;5.83;5.23;;;46.10;1.00;;;;;;5008102;28;20456;-68
2023/09/27 08:25:39;;;;;;;6.60;5.43;;;46.30;1.00;;;;;;5006880;28;20463;-69
2023/09/27 08:28:06;;;;;;;8.47;5.33;;;46.60;1.00;;;;;;5008682;28;20460;-69
2023/09/27 08:30:33;;;;;;;6.50;5.80;;;46.90;1.00;;;;;;5008225;28;20462;-68
2023/09/27 08:33:01;;;;;;;6.37;5.70;;;47.20;1.00;;;;;;5004449;28;20460;-69
2023/09/27 08:35:28;;;;;;;7.00;5.83;;;47.50;1.00;;;;;;5005669;28;20534;-68
2023/09/27 08:37:55;;;;;;;6.27;5.67;;;47.90;1.00;;;;;;5002951;28;20470;-68
2023/09/27 08:40:22;;;;;;;6.57;5.67;;;47.70;1.00;;;;;;5007264;28;20880;-68
2023/09/27 08:42:54;;;;;;;7.10;6.20;;;47.10;1.00;;;;;;5007802;28;20816;-68
2023/09/27 08:45:23;;;;;;;6.27;5.60;;;47.30;1.00;;;;;;5007240;28;20525;-69
2023/09/27 08:47:50;;;;;;;7.70;5.90;;;47.50;1.00;;;;;;5007196;28;20467;-69
2023/09/27 08:50:19;;;;;;;6.20;5.13;;;47.70;1.00;;;;;;5008332;28;20467;-68
2023/09/27 08:52:48;;;;;;;5.80;5.20;;;47.90;1.00;;;;;;5009227;28;20483;-68
2023/09/27 08:55:16;;;;;;;6.00;5.40;;;48.10;1.00;;;;;;5007698;28;20553;-69
2023/09/27 08:57:46;;;;;;;5.93;5.33;;;48.10;1.00;;;;;;5009508;28;20474;-69
2023/09/27 09:00:19;;;;;;;6.10;5.50;;;48.30;1.00;;;;;;5010529;28;20514;-68
2023/09/27 09:02:48;;;;;;;6.10;4.80;;;48.30;1.00;;;;;;5009198;28;20574;-69
2023/09/27 09:05:15;;;;;;;7.10;5.20;;;48.70;1.00;;;;;;5011808;28;21245;-69
2023/09/27 09:07:44;;;;;;;8.30;5.63;;;48.90;1.00;;;;;;5010707;28;20474;-69
2023/09/27 09:10:14;;;;;;;6.73;4.67;;;49.10;1.00;;;;;;5009136;28;20472;-69
2023/09/27 09:12:42;;;;;;;7.30;4.90;;;49.40;1.00;;;;;;5004969;28;20494;-70
2023/09/27 09:15:14;;;;;;;8.10;4.63;;;49.70;1.00;;;;;;5005359;28;20485;-70
2023/09/27 09:17:47;;;;;;;5.43;4.50;;;50.00;1.00;;;;;;5008233;28;20892;-69
2023/09/27 09:20:22;;;;;;;5.70;5.03;;;50.20;1.00;;;;;;5005947;28;20463;-69
2023/09/27 09:22:53;;;;;;;6.73;5.70;;;50.40;1.00;;;;;;5005323;28;20454;-69
2023/09/27 09:25:21;;;;;;;5.60;4.67;;;50.50;1.00;;;;;;5006467;28;20487;-70
2023/09/27 09:28:03;;;;;;;6.03;5.17;;;50.40;1.00;;;;;;5003801;28;20950;-69
2023/09/27 09:30:36;;;;;;;5.63;4.63;;;50.40;1.00;;;;;;5004873;28;20870;-70
2023/09/27 09:33:03;;;;;;;7.10;5.07;;;50.70;1.00;;;;;;5006152;28;20487;-69
2023/09/27 09:35:34;;;;;;;6.87;5.80;;;50.80;1.00;;;;;;5008735;28;21053;-68
2023/09/27 09:38:03;;;;;;;6.80;5.37;;;50.90;1.00;;;;;;5001437;28;20459;-68
2023/09/27 09:40:31;;;;;;;5.60;4.53;;;50.80;1.00;;;;;;5003965;28;20459;-68
2023/09/27 09:42:59;;;;;;;6.97;5.13;;;50.90;1.00;;;;;;5007905;28;20555;-69
2023/09/27 09:45:28;;;;;;;7.00;6.10;;;51.00;1.00;;;;;;5006856;28;20498;-69
2023/09/27 09:47:56;;;;;;;6.70;5.40;;;50.80;1.00;;;;;;5005374;28;20492;-68
2023/09/27 09:50:23;;;;;;;7.77;5.70;;;49.80;1.00;;;;;;5003273;28;20893;-68
2023/09/27 09:52:57;;;;;;;7.50;5.63;;;48.90;1.00;;;;;;4998052;28;21030;-68
2023/09/27 09:55:27;;;;;;;8.30;6.80;;;48.50;1.00;;;;;;4987184;28;20487;-69
2023/09/27 09:57:57;;;;;;;7.40;5.83;;;48.50;1.00;;;;;;5006524;28;20587;-69
2023/09/27 10:00:27;;;;;;;6.90;6.20;;;47.90;1.00;;;;;;5007190;28;20460;-68
2023/09/27 10:03:00;;;;;;;6.67;5.67;;;47.60;1.00;;;;;;5002178;28;20479;-68
2023/09/27 10:05:35;;;;;;;10.30;6.23;;;47.40;1.00;;;;;;5002713;28;20562;-70
2023/09/27 10:08:02;;;;;;;8.60;5.37;;;46.60;1.00;;;;;;5001468;28;20460;-69
2023/09/27 10:10:32;;;;;;;7.60;5.87;;;45.90;1.00;;;;;;4996147;28;20558;-70
2023/09/27 10:13:00;;;;;;;7.40;5.13;;;45.70;1.00;;;;;;5006997;28;20464;-70
2023/09/27 10:15:29;;;;;;;7.87;6.30;;;45.30;1.00;;;;;;5008647;28;20506;-69
2023/09/27 10:18:29;;;;;;;9.27;5.90;;;44.70;1.00;;;;;;5005506;28;20492;-68
2023/09/27 10:21:08;;;;;;;8.80;5.27;;;43.90;1.00;;;;;;5009472;28;20495;-68
2023/09/27 10:23:35;;;;;;;6.97;5.60;;;43.20;1.00;;;;;;5005809;28;21032;-69
2023/09/27 10:26:19;;;;;;;9.37;4.83;;;42.70;1.00;;;;;;5005913;28;20527;-68
2023/09/27 10:29:13;;;;;;;6.90;3.93;;;42.30;1.00;;;;;;5007397;28;20464;-70
2023/09/27 10:32:22;;;;;;;6.50;4.17;;;41.90;1.00;;;;;;5005850;28;20472;-70
2023/09/27 10:34:53;;;;;;;6.23;4.40;;;40.90;1.00;;;;;;5005262;28;20492;-70
2023/09/27 10:37:58;;;;;;;5.30;4.20;;;40.10;1.00;;;;;;5010144;28;20980;-71
2023/09/27 10:40:25;;;;;;;6.30;4.47;;;39.20;1.00;;;;;;4989970;28;20471;-67
2023/09/27 10:42:55;;;;;;;5.77;4.30;;;38.20;1.00;;;;;;5007585;28;20506;-71
2023/09/27 10:45:21;;;;;;;6.17;4.77;;;37.60;1.00;;;;;;5003047;28;20487;-68
2023/09/27 10:47:49;;;;;;;8.13;4.20;;;36.90;1.00;;;;;;5007248;28;20459;-68
2023/09/27 10:50:27;;;;;;;6.40;3.80;;;36.30;1.00;;;;;;5005843;28;20474;-68
2023/09/27 10:52:55;;;;;;;8.20;4.90;;;35.60;1.00;;;;;;5007717;28;20521;-67
2023/09/27 10:55:21;;;;;;;6.30;5.10;;;35.30;1.00;;;;;;5007499;28;20483;-68
2023/09/27 10:57:48;;;;;;;12.30;4.30;;;34.80;1.00;;;;;;5003008;28;20460;-69
2023/09/27 11:00:18;;;;;;;6.30;4.00;;;34.40;1.00;;;;;;5002814;28;20829;-68
2023/09/27 11:02:44;;;;;;;7.80;3.70;;;34.00;1.00;;;;;;4999572;28;20972;-68
2023/09/27 11:05:12;;;;;;;7.10;3.57;;;33.70;1.00;;;;;;4999057;28;20477;-69
2023/09/27 11:07:50;;;;;;;5.53;3.80;;;33.50;1.00;;;;;;5006410;28;20984;-69
2023/09/27 11:10:31;;;;;;;6.33;2.83;;;33.20;1.00;;;;;;5000273;28;21021;-69
2023/09/27 11:13:11;;;;;;;5.63;2.83;;;32.80;1.00;;;;;;5016822;23;20526;-66
2023/09/27 11:15:40;;;;;;;5.17;3.23;;;32.70;1.00;;;;;;4986248;28;20535;-69
2023/09/27 11:18:08;;;;;;;5.83;2.77;;;32.60;1.00;;;;;;4984839;28;20464;-67
2023/09/27 11:20:35;;;;;;;5.20;2.80;;;32.30;1.00;;;;;;4985365;28;20543;-68
2023/09/27 11:23:02;;;;;;;4.63;2.40;;;32.20;1.00;;;;;;4988359;28;20461;-66
2023/09/27 11:25:30;;;;;;;5.10;2.90;;;32.10;1.00;;;;;;4988383;28;20515;-69
2023/09/27 11:27:58;;;;;;;4.70;2.23;;;32.10;1.00;;;;;;4982839;28;20480;-69
2023/09/27 11:30:28;;;;;;;4.70;2.30;;;32.00;1.00;;;;;;4988875;28;20990;-69
2023/09/27 11:32:56;;;;;;;3.90;2.00;;;31.70;1.00;;;;;;4991396;28;20476;-69
2023/09/27 11:35:25;;;;;;;6.17;2.17;;;31.40;1.00;;;;;;4988771;28;20544;-71
2023/09/27 11:38:09;;;;;;;5.40;2.67;;;31.20;1.00;;;;;;4988342;28;20469;-69
2023/09/27 11:40:36;;;;;;;5.00;2.40;;;31.00;1.00;;;;;;4983777;28;20456;-69
2023/09/27 11:43:03;;;;;;;5.17;2.80;;;30.90;1.00;;;;;;4984505;28;20457;-70
2023/09/27 11:45:42;;;;;;;6.80;2.40;;;30.90;1.00;;;;;;4986733;28;20478;-70
2023/09/27 11:48:10;;;;;;;4.20;2.27;;;31.00;1.00;;;;;;4984361;28;20472;-69
2023/09/27 11:50:37;;;;;;;6.10;2.83;;;30.90;1.00;;;;;;4987955;28;20523;-71
2023/09/27 11:53:04;;;;;;;4.93;2.30;;;30.70;1.00;;;;;;4981188;28;20914;-70
2023/09/27 11:55:31;;;;;;;4.50;2.30;;;30.50;1.00;;;;;;4986028;28;20828;-69
2023/09/27 11:57:58;;;;;;;5.17;2.43;;;30.30;1.00;;;;;;4984777;28;20468;-71
2023/09/27 12:00:25;;;;;;;6.93;2.83;;;29.90;1.00;;;;;;4986353;28;20468;-71
2023/09/27 12:02:52;;;;;;;4.57;1.90;;;29.50;1.00;;;;;;4988494;28;20471;-72
2023/09/27 12:05:20;;;;;;;5.17;2.63;;;29.10;1.00;;;;;;4987763;28;20480;-71
2023/09/27 12:07:48;;;;;;;4.93;2.30;;;28.80;1.00;;;;;;4984156;28;20479;-71
2023/09/27 12:10:16;;;;;;;5.77;2.80;;;28.50;1.00;;;;;;4985147;28;20469;-71
2023/09/27 12:12:42;;;;;;;5.43;2.83;;;28.20;1.00;;;;;;4987243;28;21034;-70
2023/09/27 12:15:09;;;;;;;4.90;2.50;;;28.00;1.00;;;;;;4983384;28;20499;-69
2023/09/27 12:17:36;;;;;;;5.20;2.20;;;27.90;1.00;;;;;;4985129;28;20464;-69
2023/09/27 12:20:04;;;;;;;4.50;2.30;;;27.60;1.00;;;;;;4985015;28;20499;-68
2023/09/27 12:22:32;;;;;;;5.40;2.30;;;27.30;1.00;;;;;;4983147;28;20828;-68
2023/09/27 12:24:59;;;;;;;5.40;2.70;;;27.10;1.00;;;;;;4985584;28;20491;-70
2023/09/27 12:27:26;;;;;;;5.47;2.77;;;27.00;1.00;;;;;;4986203;28;20465;-72
2023/09/27 12:29:53;;;;;;;5.20;2.90;;;26.70;1.00;;;;;;4988036;28;20467;-71
2023/09/27 12:32:20;;;;;;;4.47;2.30;;;26.60;1.00;;;;;;4983935;28;20496;-70
2023/09/27 12:34:47;;;;;;;6.43;2.80;;;26.40;1.00;;;;;;4985279;28;20477;-71
2023/09/27 12:37:13;;;;;;;5.83;2.30;;;26.20;1.00;;;;;;4985591;28;20495;-70
2023/09/27 12:39:41;;;;;;;6.30;2.70;;;26.10;1.00;;;;;;4986279;28;20491;-72
2023/09/27 12:42:08;;;;;;;7.07;3.23;;;26.00;1.00;;;;;;4988968;28;20473;-72
2023/09/27 12:44:35;;;;;;;4.97;2.43;;;25.90;1.00;;;;;;4984569;28;20496;-68
2023/09/27 12:47:02;;;;;;;5.30;2.30;;;25.80;1.00;;;;;;4984784;28;20890;-67
2023/09/27 12:49:29;;;;;;;5.70;2.40;;;25.80;1.00;;;;;;4985667;28;20488;-67